• Join FlightAware (Why Join?)
  • Login
  • US Flag 
12:23AM EDT


 

Airport Tracker/Info


-or-


 

Live Flight TrackerFlight Track Log ✈ EJA131 ✈ 21-Apr-2013 ✈ KATL - KBED

Flight Track Log - Related Links

Times and Time Zones

All times are in EDT time to prevent confusion due to time zone crossing. See the EJA131 flight status page for this flight to view local times or setup timezone preferences in your user account.

Time Position Orientation Groundspeed Altitude Reporting Facility
EDT Latitude Longitude Course Direction KTS MPH feet Rate Location/Type
11:54AM 33.6539 -84.3458 78° East 449 517 4,400  Level Atlanta Center
11:55AM 33.6667 -84.2733 78° East 236 272 6,900 2,100 Climbing Atlanta Center
11:56AM 33.6836 -84.1836 77° East 257 296 8,700 1,740 Climbing Atlanta Center
11:57AM 33.7128 -84.0836 71° East 300 345 10,400 1,500 Climbing Atlanta Center
11:58AM 33.7400 -83.9889 71° East 321 369 11,800 1,500 Climbing Atlanta Center
11:59AM 33.7733 -83.8764 70° East 342 394 13,500 1,680 Climbing Atlanta Center
12:00PM 33.8064 -83.7614 71° East 360 414 15,200 1,620 Climbing Atlanta Center
12:01PM 33.8394 -83.6411 72° East 365 420 16,800 1,440 Climbing Atlanta Center
12:02PM 33.8725 -83.5233 71° East 370 426 18,100 1,320 Climbing Atlanta Center
12:03PM 33.9094 -83.3981 70° East 380 437 19,500 1,440 Climbing Atlanta Center
12:04PM 33.9442 -83.2725 72° East 391 450 21,000 1,440 Climbing Atlanta Center
12:05PM 33.9831 -83.1394 71° East 407 468 22,400 1,440 Climbing Atlanta Center
12:06PM 34.0236 -82.9961 71° East 413 475 23,900 1,260 Climbing Atlanta Center
12:07PM 34.0306 -82.8531 87° East 418 481 25,000 540 Climbing Atlanta Center
12:08PM 34.0289 -82.6978 91° East 438 504 25,000  Level Atlanta Center
12:09PM 34.0272 -82.5375 91° East 460 529 25,000 480 Level Atlanta Center
12:10PM 34.0314 -82.3794 88° East 477 549 26,000 1,020 Climbing Atlanta Center
12:11PM 34.0333 -82.2214 89° East 477 549 27,100 1,080 Climbing Atlanta Center
12:12PM 34.0833 -82.0725 68° East 477 549 28,200 1,020 Climbing Atlanta Center
12:13PM 34.1561 -81.9353 57° Northeast 467 537 29,200 1,020 Climbing Atlanta Center
12:14PM 34.2267 -81.8003 58° Northeast 472 543 30,300 960 Climbing Atlanta Center
12:15PM 34.2972 -81.6600 59° Northeast 477 549 31,200 900 Climbing Atlanta Center
12:16PM 34.3694 -81.5197 58° Northeast 484 557 32,100 840 Climbing Atlanta Center
12:17PM 34.4394 -81.3792 59° Northeast 489 563 32,900 840 Climbing Atlanta Center
12:18PM 34.5058 -81.2561 57° Northeast 494 568 33,800 900 Climbing Atlanta Center
12:19PM 34.5775 -81.1122 59° Northeast 483 556 34,700 600 Climbing Atlanta Center
12:20PM 34.6511 -80.9658 59° Northeast 500 575 35,000 120 Climbing Atlanta Center
12:21PM 34.7225 -80.8242 58° Northeast 507 583 35,000  Level Atlanta Center
12:22PM 34.8000 -80.6719 58° Northeast 515 593 35,000  Level Atlanta Center
12:23PM 34.8731 -80.5222 59° Northeast 521 600 35,000  Level Atlanta Center
12:24PM 34.9558 -80.3564 59° Northeast 528 608 35,000  Level Atlanta Center
12:26PM 35.1025 -80.0550 59° Northeast 518 596 35,000  Level Washington Center
12:27PM 35.1767 -79.9092 58° Northeast 510 587 35,000  Level Washington Center
12:28PM 35.2508 -79.7606 59° Northeast 505 581 35,000  Level Washington Center
12:29PM 35.3228 -79.6117 59° Northeast 505 581 35,000  Level Washington Center
12:30PM 35.3944 -79.4650 59° Northeast 500 575 35,000  Level Washington Center
12:31PM 35.4681 -79.3131 59° Northeast 500 575 35,000  Level Washington Center
12:32PM 35.5394 -79.1606 60° Northeast 500 575 35,000  Level Washington Center
12:33PM 35.6106 -79.0156 59° Northeast 492 566 35,000  Level Washington Center
12:34PM 35.6814 -78.8650 60° Northeast 499 574 35,000  Level Washington Center
12:35PM 35.7411 -78.7422 59° Northeast 499 574 35,000  Level Washington Center
12:36PM 35.8206 -78.5764 59° Northeast 499 574 35,000  Level Washington Center
12:37PM 35.8908 -78.4250 60° Northeast 499 574 35,000  Level Washington Center
12:38PM 35.9592 -78.2736 61° Northeast 499 574 35,000  Level Washington Center
12:39PM 36.0314 -78.1194 60° Northeast 499 574 35,000  Level Washington Center
12:40PM 36.1033 -77.9650 60° Northeast 499 574 35,000  Level Washington Center
12:41PM 36.1753 -77.8100 60° Northeast 504 580 35,000  Level Washington Center
12:42PM 36.2467 -77.6550 60° Northeast 504 580 35,000  Level Washington Center
12:43PM 36.3161 -77.5022 61° Northeast 509 586 35,000  Level Washington Center
12:44PM 36.3897 -77.3336 61° Northeast 509 586 35,000 -120 Level Washington Center
12:45PM 36.4522 -77.1903 62° Northeast 515 593 34,800 -660 Descending Washington Center
12:46PM 36.5517 -77.0658 45° Northeast 500 575 33,700 -900 Descending Washington Center
12:47PM 36.6594 -76.9539 40° Northeast 500 575 33,000 -360 Descending Washington Center
12:48PM 36.7692 -76.8392 40° Northeast 500 575 33,000  Level Washington Center
12:49PM 36.8789 -76.7239 40° Northeast 505 581 33,000  Level Washington Center
12:50PM 36.9906 -76.6061 40° Northeast 512 589 33,000  Level Washington Center
12:51PM 37.0978 -76.4956 39° Northeast 506 582 33,000  Level Washington Center
12:52PM 37.2050 -76.3794 41° Northeast 506 582 33,000  Level Washington Center
12:53PM 37.3142 -76.2656 40° Northeast 506 582 33,000  Level Washington Center
12:54PM 37.4317 -76.1333 42° Northeast 506 582 33,000  Level Washington Center
12:55PM 37.5197 -75.9925 52° Northeast 501 577 33,000  Level Washington Center
12:56PM 37.6119 -75.8514 50° Northeast 508 585 33,000  Level Washington Center
12:57PM 37.7017 -75.7100 51° Northeast 514 592 33,000  Level Washington Center
12:58PM 37.7831 -75.6103 44° Northeast 514 592 33,000  Level Washington Center
12:59PM 37.9019 -75.4892 39° Northeast 501 577 33,000  Level Washington Center
01:00PM 38.0144 -75.3783 38° Northeast 501 577 33,000  Level Washington Center
01:01PM 38.1247 -75.2697 38° Northeast 506 582 33,000  Level Washington Center
01:02PM 38.2369 -75.1608 37° Northeast 506 582 33,000  Level Washington Center
01:03PM 38.3469 -75.0436 40° Northeast 511 588 33,000  Level Washington Center
01:04PM 38.4589 -74.9314 38° Northeast 511 588 33,000  Level Washington Center
01:05PM 38.5689 -74.8189 39° Northeast 511 588 33,000  Level Washington Center
01:06PM 38.6806 -74.7061 38° Northeast 511 588 33,000  Level Washington Center
01:07PM 38.7922 -74.5903 39° Northeast 511 588 33,000  Level Washington Center
01:08PM 38.9039 -74.4739 39° Northeast 511 588 33,000  Level Washington Center
01:09PM 39.0153 -74.3600 38° Northeast 511 588 33,000  Level Washington Center
01:10PM 39.1244 -74.2486 38° Northeast 511 588 33,000  Level Washington Center
01:11PM 39.2356 -74.1311 39° Northeast 511 588 33,000  Level Washington Center
01:12PM 39.3467 -74.0161 39° Northeast 511 588 33,000  Level Washington Center
01:13PM 39.4597 -73.8981 39° Northeast 511 588 33,000  Level Washington Center
01:16PM 39.7903 -73.5444 39° Northeast 504 580 33,000  Level Boston Center
01:17PM 39.9017 -73.4244 40° Northeast 504 580 33,000  Level Boston Center
01:18PM 40.0256 -73.2989 38° Northeast 504 580 33,000  Level Boston Center
01:19PM 40.1139 -73.1997 41° Northeast 516 594 33,000  Level Boston Center
01:20PM 40.2356 -73.0625 41° Northeast 521 600 33,000  Level Boston Center
01:21PM 40.3486 -72.9411 39° Northeast 521 600 33,000  Level Boston Center
01:22PM 40.4722 -72.8056 40° Northeast 533 613 33,000  Level Boston Center
01:23PM 40.5850 -72.6833 39° Northeast 534 615 33,000  Level Boston Center
01:24PM 40.6997 -72.5578 40° Northeast 539 620 33,000  Level Boston Center
01:25PM 40.8125 -72.4372 39° Northeast 539 620 33,000  Level Boston Center
01:26PM 40.9289 -72.3219 37° Northeast 544 626 33,000  Level Boston Center
01:27PM 41.0353 -72.2750 18° North 544 626 33,000 -300 Level Boston Center
01:28PM 41.1603 -72.3133 347° North 480 552 32,400 -1,020 Descending Boston Center
01:29PM 41.2250 -72.4567 301° West 376 433 31,000 -1,200 Descending Boston Center
01:30PM 41.1875 -72.5725 247° West 281 323 30,000 -900 Descending Boston Center
01:31PM 41.0914 -72.6164 199° South 269 310 29,300 -1,020 Descending Boston Center
01:32PM 40.9872 -72.6408 190° South 314 361 28,000 -1,260 Descending Boston Center
01:33PM 40.8747 -72.6103 168° South 363 418 26,800 -1,200 Descending Boston Center
01:34PM 40.7811 -72.4978 138° Southeast 395 455 25,600 -1,260 Descending Boston Center
01:35PM 40.7644 -72.3222 97° East 393 452 24,300 -1,260 Descending Boston Center
01:36PM 40.8664 -72.2042 41° Northeast 351 404 23,100 -1,320 Descending Boston Center
01:37PM 40.9975 -72.1622 14° North 380 437 21,700 -2,400 Descending Boston Center
01:38PM 41.1036 -72.1261 14° North 398 458 18,300 -2,400 Descending Boston Center
01:39PM 41.2119 -72.0981 11° North 398 458 17,000 -660 Descending Boston Center
01:40PM 41.3306 -72.0697 10° North 398 458 17,000  Level Boston Center
01:41PM 41.4411 -72.0581 North 398 458 17,000 -780 Level Boston Center
01:42PM 41.5494 -72.0544 North 398 458 15,500 -1,560 Descending Boston Center
01:43PM 41.6244 -72.0542 360° North 382 440 14,400 -1,740 Descending Boston Center
01:43PM 41.6558 -72.0483 North 385 443 13,800 -2,640 Descending Boston Center
01:43PM 41.6808 -72.0536 351° North 373 429 12,800 -2,280 Descending Boston Center
01:44PM 41.7683 -72.0503 North 332 382 11,000 -1,080 Descending Boston Center
01:45PM 41.8411 -72.0444 North 329 379 11,000 -540 Level Boston Center
01:46PM 41.9328 -72.0439 360° North 329 379 10,100 -960 Descending Boston Center
01:46PM 41.9536 -72.0408 North 318 366 9,800 -1,140 Descending Boston Center
01:47PM 42.0100 -72.0211 15° North 311 358 9,000 -1,200 Descending Boston Center
01:47PM 42.0264 -72.0069 33° Northeast 264 304 8,600 -1,380 Descending Boston Center
01:48PM 42.0908 -71.9672 25° Northeast 258 297 7,300 -1,260 Descending Boston Center
01:49PM 42.1553 -71.9275 25° Northeast 258 297 6,100 -1,140 Descending Boston Center
01:50PM 42.2197 -71.8878 25° Northeast 255 293 5,000 -420 Descending Boston Center
01:52PM 42.3333 -71.7667 38° Northeast 251 289 5,000  Level KA90
01:53PM 42.3833 -71.7000 45° Northeast 251 289 5,000 -60 Level KA90
01:54PM 42.4167 -71.6167 62° Northeast 241 277 4,900 -660 Descending KA90
01:55PM 42.4500 -71.5500 56° Northeast 236 272 3,700 -1,320 Descending KA90
01:56PM 42.4833 -71.4667 62° Northeast 219 252 2,300 -900 Descending KA90
01:57PM 42.5000 -71.4000 71° East 202 232 2,000 -240 Descending KA90
01:59PM 42.5000 -71.3167 90° East 207 238 1,800 -180 Descending KA90
01:59PM 42.5000 -71.2500 90° East 197 227 1,700 -60 Descending KA90
02:00PM 42.4833 -71.1833 109° East 180 207 1,700 -480 Level KA90
02:01PM 42.4667 -71.2333 246° West 138 159 800 -900 Descending KA90